PICACHO TT #2 - 20K ITT

PLACE

BIB

LAST NAME

FIRST NAME

CLUB / TEAM

RACE TIME

SPEED (mph)

Women 4

1 258 Itsell Janet Colavita Racing 0:32:15 22.66
2 252 Mulvaney Tracy Landis/Trek 0:34:31 21.17
3 212 Flores Lourdes Unattached 0:35:34 20.55

Junior Women 17-18

1 227 Batchelor Ashley El Grupo 0:46:34 15.69

Masters Women 30-34

1 225 Robbin Bethany Unattached 0:52:02 14.04

Masters Women 40-44

1 257 LeMond Kris Tri Scottsdale 0:35:34 20.55

Masters Women 45-49

1 224 Naegeli Monika Unattached 0:43:24 16.84
2 270 Lindsey Laverne Tribe Racing 0:44:15 16.51

Masters Women 55-59

1 237 Denomy Patricia Southwest Hand Cycling Team 0:33:52 21.58

Women Fixed Gear

1 218 Frank Susan Team RPM 0:33:00 22.14

Men Pro, 1, 2

1 200 Powell DouG AZphalt Cycling 0:26:55 27.15

Men 3

1 206 Riquelme Victor Aggress 0:26:34 27.51
2 242 Harsley Kevin Eclipse Racing 0:30:05 24.29
3 239 Davis James unattached 0:30:14 24.17
4 263 Jones Matthew Eclipse Racing 0:30:46 23.75
5 254 Russell Darik Carlos OBriens Racing 0:33:03 22.11
6 208 Fischer Alan Jim Click Automotive Team 0:37:01 19.74

Men 4

1 274 Lach Dennis Unattached 0:28:30 25.64
2 219 Merry Jake Summit Velo 0:28:40 25.49
3 259 Brown Alan Tribe Racing 0:29:36 24.69
4 235 Varhola George Summit Velo 0:29:41 24.62
5 213 Horn Richard Echelon Racing 0:30:36 23.88
6 268 Escamilla Edwin Tribe Racing 0:31:09 23.46
7 256 LeMond Jacques Team Vitesse 0:32:17 22.63

Men 5

1 247 Niegocki Dann Saguaro Velo 0:32:28 22.51
2 241 Babb Coleman Unattached 0:32:47 22.29
3 271 Howk Neil Unattached 0:33:43 21.67
4 264 Bloomquist Christian Unattached 0:36:19 20.12
5 240 Howe Ronald Unattached 0:36:21 20.10
6 234 Hale Todd Unattached 0:37:05 19.71
7 275 Ziegler Jamie Unattached 0:37:10 19.66
8 269 Holguin Omar Tribe Racing 0:37:28 19.50
9 226 Buck Doug Unattached 0:41:35 17.57

Junior Men 10-12

1 244 Cronyn Avery El Grupo Youth Cycling Club 0:49:15 14.84

Junior Men 13-14

1 245 Cronyn Max El Grupo Youth Cycling Club 0:29:08 25.08
2 243 Boyd Logan El Grupo Youth Cycling Club 0:35:17 20.71
3 207 Mathews Christian Unattached 0:35:23 20.65
4 220 Merry Bradley Saguaro Velo 0:39:15 18.62

Junior Men 15-16

1 228 Caputo Donovan El Grupo 0:38:06 19.18
2 222 Skolnik Caleb Unattached 0:40:11 18.18
3 202 Overmyer Scott Saguaro Velo 0:43:58 16.62

Junior Men 17-18

1 214 Chorost Robert Tachycardia Racing 0:28:47 25.39
2 231 Kramer John El Grupo 0:34:03 21.46
3 229 Bojorquez Ricardo El Grupo 0:37:24 19.54
4 201 Overmyer Wesley Saguaro Velo 0:40:09 18.20
DNS 230 Silva Pablo El Grupo ###### 1.04

Masters Men 35-39

1 236 Barnes Marc Unattached 0:33:52 21.58

Masters Men 40-44

1 249 Terrell Douglas Unattached 0:27:53 26.21
2 232 Pearson Troy Saguaro Velo 0:30:08 24.25
3 233 Drawbaugh Dean Unattached 0:30:23 24.05
4 272 Chubon Jim Unattached 0:36:28 20.04

Masters Men 45-49

1 250 McGehee D RIDECLEAN 0:27:04 27.00
2 209 Lamb Jesus GST Racing 0:27:32 26.54
3 261 Reger Barry Unattached 0:29:53 24.45

Masters Men 50-54

1 266 Bonelli Marco Strictly 0:29:11 25.04
2 255 Parrish Mike Landis/Trek 0:31:46 23.00
3 262 Graves Stanley Unattached 0:33:32 21.79
4 273 Young Bob Unattached 0:34:03 21.46
5 223 Skolnik Bruce Unattached 0:38:00 19.23

Masters Men 55-59

1 203 Nelson Eric Team RPM 0:28:22 25.76
2 215 Crockatt Dale Tachycardia Racing 0:28:48 25.37
3 265 Treinen Steve Unattached 0:29:21 24.90
4 204 Ostrem James Team RPM 0:29:22 24.88
5 251 Mulvaney Duane Landis/Trek 0:29:50 24.49
6 238 Liming Craig Thunder Mountain Cycling 0:29:52 24.47
7 253 Hansen Larry Unattached 0:32:32 22.46
8 276 Domingue Paul Saguaro Velo 0:34:36 21.12
9 221 Segerman Garry Unattached 0:38:59 18.74
10 217 Lopez Al Unattached 0:40:03 18.25

Masters Men 60-64

1 205 Terslin Palle Team RPM 0:29:27 24.81
2 216 Harris Glenn Thunder Mountain Cycling 0:32:37 22.40
3 210 Maor Ephraim Carlos OBriens Racing 0:35:20 20.68

Masters Men 65-69

1 246 Duckett Ralph Southwest Hand Cycling Team 0:30:54 23.65
2 260 Ellwanger Richard Aggress 0:32:21 22.59
3 248 Quinn Jack Phoenix Consumers Cycling Club 0:33:49 21.61
4 267 Lenox Glenn Unattached 0:37:59 19.24

Masters Men 70-74

1 211 Hammer Franz Excel Sports Boulder 0:28:50 25.34

PICACHO TT #2 - 40K ITT

PLACE

BIB

LAST NAME

FIRST NAME

CLUB / TEAM

RACE TIME

SPEED (mph)

Women Pro, 1, 2

1 402 Swanson Sarah Summit Velo 1:08:17 21.84
2 428 Lamb Tamara Eclipse Racing 1:14:09 20.11

Women 3

1 447 Albertazzi Teri Unattached 1:03:10 23.61
2 458 Shackelton Shawn Colavita Racing 1:10:14 21.23
3 424 Sanchez Cindy Summit Velo 1:10:32 21.14
4 426 Carbone Carolyn Unattached 1:11:16 20.93

Masters Women 60-64

DNF 460 Woodard Renee Unattached 10:16:00 2.42

Masters Women 40-44

1 419 Bacal Susan Eclipse Racing 1:13:19 20.34

Masters Women 50-54

1 456 McGinley Lynne Unattached 1:28:14 16.90

Men Pro, 1, 2

1 470 Schreiber Nicholaus Landis/Trek 0:58:29 25.50
2 200 Powell DouG AZphalt Cycling 0:59:46 24.95

Men 3

1 479 Brodhagen Keith Carlos OBriens Racing 0:57:33 25.91
2 451 Bochart Brad Carlos OBriens Racing 0:59:27 25.08
3 414 Simonson John GST Racing 1:01:29 24.26
4 421 Becwar Neil Unattached 1:02:18 23.94
5 449 Hansen Taylor Honeywell Cycling 1:04:18 23.19
6 403 Thompson Kiral Summit Velo 1:05:31 22.76

Men 4

1 462 Franke Nathan Unattached 1:00:32 24.64
2 409 Stewart Doug Presteza 1:01:36 24.21
3 427 Hutton Richard Summit Velo 1:01:38 24.20
4 482 Horn Richard Echelon Racing 1:02:44 23.77
5 429 Lamb Ross Eclipse Racing 1:02:57 23.69
6 454 Smith Kurt San Tan Racing/Paragon Cycling 1:03:43 23.41
7 433 Cates Andrew White Mountain Road Club 1:04:37 23.08
8 455 Harman Bill Saguaro Velo 1:05:43 22.69
9 404 Mause Pat Summit Velo 1:06:56 22.28
10 459 Hepler Jason Summit Velo 1:09:44 21.39
11 439 Moore Wayne Echelon Racing 1:12:24 20.60
DNS 268 Escamilla Edwin Tribe Racing 10:09:00 2.45

Men 5

1 452 Carillo Leo #N/A 0:58:21 25.56
2 416 Valente Marco Tachycardia Racing 1:03:56 23.33
3 475 Burns Ethan Unattached 1:05:00 22.94
4 466 FILA DARIN Team DNA Racing 1:05:19 22.83
5 465 Purcell Bob Team DNA Racing 1:06:04 22.57
6 468 Keeme Everardo Landis/Trek 1:06:32 22.41
7 444 Ward Matt Tricats 1:08:08 21.89
8 423 Jenkins Cody #N/A 1:09:21 21.50
9 483 Green Cameron TriCats 1:09:49 21.36
10 453 O'Connor Tim #N/A 1:12:44 20.50
11 478 Eberly Jon Unattached 1:13:11 20.38
12 461 DeMicco Matt Unattached 1:13:21 20.33
13 271 Howk Neil Unattached 1:14:30 20.02
14 422 Perez Jorge Eclipse Racing 1:17:42 19.19
15 437 Montaney Ken Unattached 1:20:36 18.50
16 440 Lappin Mark Eclipse Racing 1:20:44 18.47
17 448 Gresinger John Unattached 1:21:47 18.23

Junior Men 17-18

DNS 214 Chorost Robert Tachycardia Racing 10:37:30 2.34

Masters Men 30-34

1 443 Lewis Edgar Unattached 1:10:12 21.24

Masters Men 35-39

1 410 Chacon Luis P&S Specialized 0:57:54 25.76
2 438 Hoppert Jeffrey Eclipse Racing 1:02:51 23.73
3 425 Parker Jeff Eclipse Racing 1:03:38 23.44
4 412 Ybarci Ernesto P&S Specialized 1:04:36 23.08
5 472 McCrohan Alex Unattached 1:07:27 22.11
6 473 Mong Dennis AZphalt Cycling 1:12:51 20.47

Masters Men 40-44

1 418 Rosenquist Kurt Team RPM 0:56:32 26.38
2 463 Poole Chris Honeywell Cycling 1:02:04 24.03
3 407 Kealey Paul Summit Velo 1:02:50 23.73
4 432 Gilligan Edward GST Racing 1:04:03 23.28
5 480 Zamora Carlos Carlos OBriens Racing 1:04:14 23.22
6 406 Masursky Leo GST Racing 1:04:31 23.11
7 405 Mount John Southwest Hand Cycling Team 1:09:05 21.59

Masters Men 45-49

1 408 Brown Peter Unattached 0:56:16 26.50
2 445 Cronyn Nelson Team RPM 0:57:45 25.82
3 469 Lemke Brian Landis/Trek 0:58:37 25.44
4 209 Lamb Jesus GST Racing 1:03:15 23.58
5 420 Schumacher Adrian GST Racing 1:04:53 22.98
6 430 Lewis Donald Team Rhino 1:07:56 21.95

Masters Men 50-54

1 411 O'Brien Paul Unattached 1:01:37 24.20
2 434 Duvall Andrie White Mountain Road Club 1:03:06 23.63
3 467 Higgins Charles Landis/Trek 1:03:12 23.60
4 446 Kobran Christopher 3D RacingTeam / Tom's Atlantic Cyclery 1:06:14 22.52
5 400 Gold Ira Eclipse Racing 1:07:19 22.15
6 413 Feingold Daniel Thunder Mountain Cycling 1:08:07 21.89
7 457 McGinley Rick Unattached 1:08:44 21.70

Masters Men 55-59

1 464 Williams Donald Team RPM 0:59:45 24.96
2 436 Holman Philip Unattached 1:03:06 23.63
3 435 Suida Joseph Southwest Hand Cycling Team 1:04:04 23.28
4 481 Lehnen David Landis/Trek 1:04:33 23.10
5 253 Hansen Larry Unattached 1:14:54 19.91

Masters Men 60-64

1 471 Freeman Dennis Unattached 1:05:33 22.75
2 415 Buttke James Thunder Mountain Cycling 1:10:42 21.09

Tandem Men

1 401 Dave Swanson Rachfal Clark Summit Velo 0:55:46 26.74
2 431 Jeffrey Ulbrich Andrew Hosterman Southwest Hand Cycling Team 1:02:15 23.96

PICACHO TT #2 - 40K TTT

PLACE

BIB

LAST NAME

FIRST NAME

CLUB / TEAM

M/F

RACE CAT

RACE TIME

SPEED (mph)

1 8 French Megan METRO PHX BANK/LIFELOCK/TRIBE RACING TTF 140+ 1:02:14 23.96
1 8 Dickson Catherine METRO PHX BANK/LIFELOCK/TRIBE RACING TTF 140+ 1:02:14 23.96
1 8 Dehaan Michelle METRO PHX BANK/LIFELOCK/TRIBE RACING TTF 140+ 1:02:14 23.96
1 8 Off Lynn METRO PHX BANK/LIFELOCK/TRIBE RACING TTF 140+ 1:02:14 23.96
2 11 Dunphy Heather Team Kenda TTF 140+ 1:08:28 21.78
2 11 Adkins Sue Team Kenda TTF 140+ 1:08:28 21.78
2 11 Suriano Monica Team Kenda TTF 140+ 1:08:28 21.78
2 11 Merritt Liz Team Kenda TTF 140+ 1:08:28 21.78
3 14 Lane Terrin METRO PHX BANK/LIFELOCK/TRIBE RACING TTF 140+ 1:14:13 20.09
3 14 Shoemaker Shawn METRO PHX BANK/LIFELOCK/TRIBE RACING TTF 140+ 1:14:13 20.09
3 14 Purcell Jill METRO PHX BANK/LIFELOCK/TRIBE RACING TTF 140+ 1:14:13 20.09
3 14 Somack Laura METRO PHX BANK/LIFELOCK/TRIBE RACING TTF 140+ 1:14:13 20.09
4 10 Darby Courtney METRO PHX BANK/LIFELOCK/TRIBE RACING TTF 140+ 1:19:18 18.81
4 10 Hermsen Shelley METRO PHX BANK/LIFELOCK/TRIBE RACING TTF 140+ 1:19:18 18.81
4 10 Newman Tracie METRO PHX BANK/LIFELOCK/TRIBE RACING TTF 140+ 1:19:18 18.81
4 10 Janik Kerrie METRO PHX BANK/LIFELOCK/TRIBE RACING TTF 140+ 1:19:18 18.81
1 1 Osinga Lisa METRO PHX BANK/LIFELOCK/TRIBE RACING TTF Open 1:13:16 20.35
1 1 Lidner Shannon METRO PHX BANK/LIFELOCK/TRIBE RACING TTF Open 1:13:16 20.35
1 1 Dunlop Kendra METRO PHX BANK/LIFELOCK/TRIBE RACING TTF Open 1:13:16 20.35
1 1 Maor Orly METRO PHX BANK/LIFELOCK/TRIBE RACING TTF Open 1:13:16 20.35
1 9 Brechner Steve Carlos OBriens Racing TTM 140+ 0:59:27 25.08
1 9 Rhodes Patrick Carlos OBriens Racing TTM 140+ 0:59:27 25.08
1 9 Wall Scott Carlos OBriens Racing TTM 140+ 0:59:27 25.08
1 9 Barnes Jarrod Carlos OBriens Racing TTM 140+ 0:59:27 25.08
1 7 Giles Marty Southwest Hand Cycling Team TTM 180+ 0:59:42 24.98
1 7 Carroth John Southwest Hand Cycling Team TTM 180+ 0:59:42 24.98
1 7 Lopez Steve Southwest Hand Cycling Team TTM 180+ 0:59:42 24.98
1 7 Van Hook Frederick Southwest Hand Cycling Team TTM 180+ 0:59:42 24.98
2 15 Peters Mark Team WM TTM 180+ 1:05:45 22.68
2 15 Nickerson Robert Team Vitesse TTM 180+ 1:05:45 22.68
2 15 Smith Brian Team WM TTM 180+ 1:05:45 22.68
2 15 Lynch Michael Team WM TTM 180+ 1:05:45 22.68
3 12 Bridschge Michael Unattached TTM 180+ 1:06:05 22.57
3 12 Burns Kevin Unattached TTM 180+ 1:06:05 22.57
3 12 Baker Wes Unattached TTM 180+ 1:06:05 22.57
3 12 Yang Eugene Unattached TTM 180+ 1:06:05 22.57
4 6 Goldsmith Christopher Le Scomparse Cycling Team TTM 180+ 1:07:50 21.98
4 6 Khawam Yvez Le Scomparse Cycling Team TTM 180+ 1:07:50 21.98
4 6 Swain David Le Scomparse Cycling Team TTM 180+ 1:07:50 21.98
4 6 Kirsten James Le Scomparse Cycling Team TTM 180+ 1:07:50 21.98
1 2 Dowdall Reginald Southwest Hand Cycling Team TTM 210+ 0:58:43 25.40
1 2 Howard Greg Southwest Hand Cycling Team TTM 210+ 0:58:43 25.40
1 2 Nelson Dwight Southwest Hand Cycling Team TTM 210+ 0:58:43 25.40
1 2 Unger Evan Southwest Hand Cycling Team TTM 210+ 0:58:43 25.40
1 5 Sheehan Vernon Summit Velo TTM 230+ 1:09:51 21.35
1 5 Frohling Ted Summit Velo TTM 230+ 1:09:51 21.35
1 5 Reynolds Richard Summit Velo TTM 230+ 1:09:51 21.35
1 5 Gardner Lee Summit Velo TTM 230+ 1:09:51 21.35
1 3 Hanft Roger Tachycardia Racing TTM Open 1:11:50 20.76
1 3 Miller Shawn Tachycardia Racing TTM Open 1:11:50 20.76
1 3 Florko Chris Tachycardia Racing TTM Open 1:11:50 20.76
1 3 matzek john Tachycardia Racing TTM Open 1:11:50 20.76
1 4 Frohling Barbara Summit Velo TTX Open 1:24:57 17.55
1 4 Hilgeford Rachel Summit Velo TTX Open 1:24:57 17.55
1 4 Sax Gary Summit Velo TTX Open 1:24:57 17.55